createdAt,value
2023-05-18T00:00:14.189Z,8.20
2023-05-18T00:02:43.361Z,8.20
2023-05-18T00:05:11.991Z,8.20
2023-05-18T00:07:41.955Z,8.10
2023-05-18T00:10:11.801Z,8.10
2023-05-18T00:12:40.403Z,8.00
2023-05-18T00:15:10.474Z,8.00
2023-05-18T00:17:39.189Z,7.90
2023-05-18T00:20:10.350Z,7.90
2023-05-18T00:22:42.793Z,7.90
2023-05-18T00:25:12.889Z,7.90
2023-05-18T00:27:41.499Z,7.80
2023-05-18T00:30:10.807Z,7.80
2023-05-18T00:32:39.535Z,7.70
2023-05-18T00:35:08.668Z,7.70
2023-05-18T00:37:37.335Z,7.70
2023-05-18T00:40:07.705Z,7.70
2023-05-18T00:42:37.642Z,7.60
2023-05-18T00:45:07.485Z,7.60
2023-05-18T00:47:36.581Z,7.60
2023-05-18T00:50:06.567Z,7.60
2023-05-18T00:52:36.140Z,7.50
2023-05-18T00:55:07.035Z,7.50
2023-05-18T00:57:38.395Z,7.40
2023-05-18T01:00:10.825Z,7.50
2023-05-18T01:02:42.681Z,7.40
2023-05-18T01:05:12.146Z,7.30
2023-05-18T01:07:43.359Z,7.30
2023-05-18T01:10:16.131Z,7.30
2023-05-18T01:12:51.855Z,7.30
2023-05-18T01:15:24.434Z,7.20
2023-05-18T01:18:05.028Z,7.20
2023-05-18T01:20:39.189Z,7.10
2023-05-18T01:23:21.433Z,7.10
2023-05-18T01:26:13.184Z,7.10
2023-05-18T01:28:42.916Z,7.10
2023-05-18T01:31:12.494Z,7.00
2023-05-18T01:33:41.509Z,7.00
2023-05-18T01:36:11.474Z,7.00
2023-05-18T01:38:43.764Z,7.00
2023-05-18T01:41:19.854Z,7.00
2023-05-18T01:43:54.487Z,7.00
2023-05-18T01:46:33.131Z,6.90
2023-05-18T01:49:17.784Z,6.90
2023-05-18T01:51:48.053Z,6.90
2023-05-18T01:54:21.413Z,6.80
2023-05-18T01:56:55.971Z,6.80
2023-05-18T01:59:25.059Z,6.80
2023-05-18T02:01:59.350Z,6.80
2023-05-18T02:04:29.074Z,6.70
2023-05-18T02:06:57.928Z,6.70
2023-05-18T02:09:26.615Z,6.70
2023-05-18T02:11:56.610Z,6.70
2023-05-18T02:14:27.132Z,6.70
2023-05-18T02:16:57.406Z,6.70
2023-05-18T02:19:26.260Z,6.60
2023-05-18T02:21:56.134Z,6.70
2023-05-18T02:24:24.756Z,6.60
2023-05-18T02:26:53.483Z,6.50
2023-05-18T02:29:23.475Z,6.60
2023-05-18T02:31:52.360Z,6.50
2023-05-18T02:34:22.013Z,6.50
2023-05-18T02:36:50.631Z,6.50
2023-05-18T02:39:19.580Z,6.40
2023-05-18T02:41:48.209Z,6.40
2023-05-18T02:44:16.810Z,6.40
2023-05-18T02:46:46.789Z,6.30
2023-05-18T02:49:15.574Z,6.30
2023-05-18T02:51:44.652Z,6.30
2023-05-18T02:54:13.871Z,6.20
2023-05-18T02:56:44.494Z,6.30
2023-05-18T02:59:24.894Z,6.20
2023-05-18T03:01:54.859Z,6.20
2023-05-18T03:04:26.181Z,6.10
2023-05-18T03:06:57.290Z,6.10
2023-05-18T03:09:26.354Z,6.10
2023-05-18T03:11:56.665Z,6.10
2023-05-18T03:14:25.421Z,6.00
2023-05-18T03:16:58.177Z,6.00
2023-05-18T03:19:28.194Z,6.00
2023-05-18T03:21:57.948Z,5.90
2023-05-18T03:24:30.293Z,5.90
2023-05-18T03:27:01.009Z,5.90
2023-05-18T03:29:31.476Z,5.90
2023-05-18T03:32:02.587Z,5.80
2023-05-18T03:34:31.330Z,5.80
2023-05-18T03:37:00.282Z,5.80
2023-05-18T03:39:28.969Z,5.70
2023-05-18T03:41:58.439Z,5.80
2023-05-18T03:44:26.999Z,5.70
2023-05-18T03:46:56.178Z,5.70
2023-05-18T03:49:26.267Z,5.80
2023-05-18T03:51:56.397Z,5.70
2023-05-18T03:54:25.057Z,5.80
2023-05-18T03:56:53.776Z,5.70
2023-05-18T03:59:22.456Z,5.60
2023-05-18T04:01:53.766Z,5.70
2023-05-18T04:04:23.703Z,5.70
2023-05-18T04:06:53.863Z,5.70
2023-05-18T04:09:23.866Z,5.60
2023-05-18T04:11:53.034Z,5.60
2023-05-18T04:14:24.673Z,5.70
2023-05-18T04:16:53.722Z,5.70
2023-05-18T04:19:25.022Z,5.60
2023-05-18T04:21:55.098Z,5.60
2023-05-18T04:24:23.869Z,5.60
2023-05-18T04:26:52.598Z,5.60
2023-05-18T04:29:21.427Z,5.70
2023-05-18T04:31:50.205Z,5.80
2023-05-18T04:34:19.114Z,5.70
2023-05-18T04:36:48.677Z,5.80
2023-05-18T04:39:18.923Z,5.80
2023-05-18T04:41:47.855Z,5.80
2023-05-18T04:44:18.294Z,5.90
2023-05-18T04:46:47.508Z,5.90
2023-05-18T04:49:16.581Z,5.90
2023-05-18T04:51:46.764Z,6.00
2023-05-18T04:54:16.163Z,6.00
2023-05-18T04:56:47.494Z,6.00
2023-05-18T04:59:16.166Z,6.00
2023-05-18T05:01:45.369Z,6.30
2023-05-18T05:04:14.592Z,6.10
2023-05-18T05:06:43.273Z,6.20
2023-05-18T05:09:14.105Z,6.20
2023-05-18T05:11:43.241Z,6.30
2023-05-18T05:14:13.364Z,6.40
2023-05-18T05:16:42.751Z,6.40
2023-05-18T05:19:11.434Z,6.50
2023-05-18T05:21:40.382Z,6.50
2023-05-18T05:24:09.345Z,6.60
2023-05-18T05:26:38.257Z,6.70
2023-05-18T05:29:09.390Z,6.80
2023-05-18T05:31:39.604Z,6.90
2023-05-18T05:34:08.234Z,7.10
2023-05-18T05:36:37.098Z,7.20
2023-05-18T05:39:06.219Z,7.40
2023-05-18T05:41:34.910Z,7.60
2023-05-18T05:44:03.792Z,7.80
2023-05-18T05:46:32.500Z,8.00
2023-05-18T05:49:04.163Z,8.20
2023-05-18T05:51:32.844Z,8.40
2023-05-18T05:54:01.927Z,8.60
2023-05-18T05:56:31.541Z,8.80
2023-05-18T05:59:00.947Z,8.90
2023-05-18T06:01:29.676Z,9.10
2023-05-18T06:03:58.592Z,9.20
2023-05-18T06:06:29.398Z,9.40
2023-05-18T06:08:58.208Z,9.50
2023-05-18T06:11:27.143Z,9.80
2023-05-18T06:13:55.999Z,9.80
2023-05-18T06:16:25.653Z,9.90
2023-05-18T06:18:54.835Z,10.00
2023-05-18T06:21:23.623Z,10.10
2023-05-18T06:23:53.622Z,10.20
2023-05-18T06:26:38.170Z,10.30
2023-05-18T06:29:08.778Z,10.50
2023-05-18T06:31:50.454Z,10.60
2023-05-18T06:34:23.738Z,10.60
2023-05-18T06:36:53.037Z,10.70
2023-05-18T06:39:23.364Z,10.80
2023-05-18T06:41:52.538Z,10.90
2023-05-18T06:44:27.218Z,10.90
2023-05-18T06:47:12.112Z,10.90
2023-05-18T06:49:40.870Z,11.00
2023-05-18T06:52:10.099Z,11.00
2023-05-18T06:54:40.564Z,11.10
2023-05-18T06:57:09.242Z,11.10
2023-05-18T06:59:37.937Z,11.20
2023-05-18T07:02:06.920Z,11.20
2023-05-18T07:04:35.577Z,11.30
2023-05-18T07:07:04.651Z,11.40
2023-05-18T07:09:33.310Z,11.40
2023-05-18T07:12:03.520Z,11.50
2023-05-18T07:14:32.186Z,11.50
2023-05-18T07:17:00.888Z,11.50
2023-05-18T07:19:30.009Z,11.50
2023-05-18T07:21:59.425Z,11.50
2023-05-18T07:24:28.042Z,11.50
2023-05-18T07:26:58.295Z,11.60
2023-05-18T07:29:30.175Z,11.60
2023-05-18T07:31:58.922Z,11.60
2023-05-18T07:34:27.854Z,11.60
2023-05-18T07:36:57.726Z,11.60
2023-05-18T07:39:29.482Z,11.60
2023-05-18T07:41:58.184Z,11.60
2023-05-18T07:44:26.948Z,11.60
2023-05-18T07:46:57.107Z,11.70
2023-05-18T07:49:25.987Z,11.70
2023-05-18T07:51:54.623Z,11.70
2023-05-18T07:54:23.263Z,11.80
2023-05-18T07:56:51.783Z,11.80
2023-05-18T07:59:20.993Z,11.80
2023-05-18T08:01:49.710Z,11.90
2023-05-18T08:04:19.779Z,11.90
2023-05-18T08:06:48.607Z,12.00
2023-05-18T08:09:17.557Z,12.00
2023-05-18T08:11:46.191Z,12.00
2023-05-18T08:14:14.820Z,12.10
2023-05-18T08:16:43.439Z,12.10
2023-05-18T08:19:12.157Z,12.20
2023-05-18T08:21:42.146Z,12.20
2023-05-18T08:24:11.174Z,12.30
2023-05-18T08:26:39.865Z,12.30
2023-05-18T08:29:10.577Z,12.40
2023-05-18T08:31:39.707Z,12.40
2023-05-18T08:34:08.998Z,12.50
2023-05-18T08:36:38.359Z,12.50
2023-05-18T08:39:08.636Z,12.50
2023-05-18T08:41:45.791Z,12.50
2023-05-18T08:44:18.079Z,12.60
2023-05-18T08:46:50.990Z,12.70
2023-05-18T08:49:21.728Z,12.80
2023-05-18T08:51:58.430Z,12.80
2023-05-18T08:54:28.829Z,12.80
2023-05-18T08:56:58.114Z,12.90
2023-05-18T08:59:28.391Z,13.00
2023-05-18T09:01:57.370Z,13.00
2023-05-18T09:04:27.262Z,13.10
2023-05-18T09:06:57.046Z,13.20
2023-05-18T09:09:28.154Z,13.30
2023-05-18T09:11:57.454Z,13.40
2023-05-18T09:14:26.892Z,13.40
2023-05-18T09:16:55.838Z,13.40
2023-05-18T09:19:25.136Z,13.50
2023-05-18T09:21:53.960Z,13.50
2023-05-18T09:24:24.781Z,13.60
2023-05-18T09:26:55.774Z,13.70
2023-05-18T09:29:25.013Z,13.80
2023-05-18T09:31:54.583Z,13.90
2023-05-18T09:34:24.575Z,13.90
2023-05-18T09:36:54.030Z,13.90
2023-05-18T09:39:22.840Z,13.90
2023-05-18T09:41:58.188Z,14.00
2023-05-18T09:44:34.572Z,14.10
2023-05-18T09:47:03.968Z,14.10
2023-05-18T09:49:32.689Z,14.20
2023-05-18T09:52:01.452Z,14.30
2023-05-18T09:54:30.216Z,14.30
2023-05-18T09:57:10.282Z,14.50
2023-05-18T09:59:39.696Z,14.50
2023-05-18T10:02:08.952Z,14.70
2023-05-18T10:04:39.577Z,14.80
2023-05-18T10:07:13.406Z,14.90
2023-05-18T10:09:43.470Z,14.90
2023-05-18T10:12:14.700Z,15.00
2023-05-18T10:14:44.369Z,15.10
2023-05-18T10:17:16.385Z,15.10
2023-05-18T10:19:46.853Z,15.20
2023-05-18T10:22:18.505Z,15.20
2023-05-18T10:24:51.242Z,15.30
2023-05-18T10:27:27.684Z,15.40
2023-05-18T10:29:59.280Z,15.40
2023-05-18T10:32:33.609Z,15.50
2023-05-18T10:35:03.112Z,15.60
2023-05-18T10:37:33.318Z,15.50
2023-05-18T10:40:02.914Z,15.50
2023-05-18T10:42:33.650Z,15.60
2023-05-18T10:45:03.582Z,15.60
2023-05-18T10:47:33.178Z,15.50
2023-05-18T10:50:05.060Z,15.50
2023-05-18T10:52:34.852Z,15.40
2023-05-18T10:55:04.393Z,15.50
2023-05-18T10:57:39.037Z,15.50
2023-05-18T11:00:10.360Z,15.50
2023-05-18T11:02:42.462Z,15.50
2023-05-18T11:05:12.865Z,15.50
2023-05-18T11:07:41.672Z,15.50
2023-05-18T11:10:12.436Z,15.70
2023-05-18T11:12:43.114Z,15.70
2023-05-18T11:15:12.447Z,15.80
2023-05-18T11:17:41.183Z,15.90
2023-05-18T11:20:18.029Z,15.90
2023-05-18T11:22:49.755Z,16.00
2023-05-18T11:25:54.834Z,16.10
2023-05-18T11:28:24.800Z,16.20
2023-05-18T11:30:53.729Z,16.40
2023-05-18T11:33:28.614Z,16.50
2023-05-18T11:35:59.633Z,16.60
2023-05-18T11:38:54.671Z,16.70
2023-05-18T11:41:35.331Z,16.80
2023-05-18T11:44:19.658Z,16.90
2023-05-18T11:47:02.174Z,16.90
2023-05-18T11:49:32.908Z,16.90
2023-05-18T11:52:07.395Z,16.80
2023-05-18T11:54:47.873Z,16.80
2023-05-18T11:57:18.732Z,16.90
2023-05-18T11:59:50.133Z,17.00
2023-05-18T12:02:25.032Z,17.10
2023-05-18T12:04:55.335Z,17.00
2023-05-18T12:07:25.563Z,17.10
2023-05-18T12:09:54.414Z,17.20
2023-05-18T12:12:24.364Z,17.30
2023-05-18T12:14:58.784Z,17.30
2023-05-18T12:17:40.268Z,17.40
2023-05-18T12:20:10.240Z,17.50
2023-05-18T12:22:39.385Z,17.60
2023-05-18T12:25:09.524Z,17.60
2023-05-18T12:27:40.829Z,17.70
2023-05-18T12:30:13.776Z,17.70
2023-05-18T12:32:46.854Z,17.80
2023-05-18T12:35:16.069Z,17.70
2023-05-18T12:37:45.751Z,17.70
2023-05-18T12:40:16.014Z,17.70
2023-05-18T12:42:53.512Z,17.70
2023-05-18T12:45:27.732Z,17.70
2023-05-18T12:47:57.209Z,17.70
2023-05-18T12:50:27.035Z,17.80
2023-05-18T12:52:57.290Z,17.90
2023-05-18T12:55:26.619Z,17.90
2023-05-18T12:58:03.233Z,18.00
2023-05-18T13:00:36.940Z,18.00
2023-05-18T13:03:12.643Z,18.00
2023-05-18T13:05:44.951Z,18.00
2023-05-18T13:08:15.747Z,17.90
2023-05-18T13:10:45.452Z,18.00
2023-05-18T13:13:16.736Z,18.10
2023-05-18T13:15:47.205Z,18.20
2023-05-18T13:18:16.921Z,18.20
2023-05-18T13:20:49.636Z,18.30
2023-05-18T13:23:21.125Z,18.40
2023-05-18T13:25:50.270Z,18.50
2023-05-18T13:28:20.780Z,18.50
2023-05-18T13:30:51.035Z,18.60
2023-05-18T13:33:19.776Z,18.70
2023-05-18T13:35:49.681Z,18.70
2023-05-18T13:38:18.543Z,18.80
2023-05-18T13:40:47.431Z,18.80
2023-05-18T13:43:19.051Z,18.80
2023-05-18T13:45:47.833Z,18.70
2023-05-18T13:48:18.020Z,18.70
2023-05-18T13:50:46.785Z,18.70
2023-05-18T13:53:15.677Z,18.80
2023-05-18T13:55:44.355Z,18.80
2023-05-18T13:58:13.000Z,18.80
2023-05-18T14:00:41.777Z,18.80
2023-05-18T14:03:10.630Z,18.80
2023-05-18T14:05:40.835Z,18.70
2023-05-18T14:08:09.637Z,18.60
2023-05-18T14:10:38.328Z,18.60
2023-05-18T14:13:08.440Z,18.60
2023-05-18T14:15:37.558Z,18.60
2023-05-18T14:18:06.384Z,18.60
2023-05-18T14:20:37.851Z,18.60
2023-05-18T14:23:09.763Z,18.70
2023-05-18T14:25:38.784Z,18.60
2023-05-18T14:28:07.408Z,18.60
2023-05-18T14:30:36.085Z,18.60
2023-05-18T14:33:04.914Z,18.60
2023-05-18T14:35:33.738Z,18.60
2023-05-18T14:38:02.871Z,18.70
2023-05-18T14:40:33.162Z,18.60
2023-05-18T14:43:01.930Z,18.60
2023-05-18T14:45:30.538Z,18.60
2023-05-18T14:47:59.190Z,18.60
2023-05-18T14:50:27.975Z,18.70
2023-05-18T14:52:56.564Z,18.70
2023-05-18T14:55:25.435Z,18.70
2023-05-18T14:57:55.438Z,18.70
2023-05-18T15:00:24.139Z,18.50
2023-05-18T15:02:52.956Z,18.50
2023-05-18T15:05:21.635Z,18.50
2023-05-18T15:07:50.219Z,18.60
2023-05-18T15:10:20.899Z,18.50
2023-05-18T15:12:49.535Z,18.50
2023-05-18T15:15:19.618Z,18.50
2023-05-18T15:17:48.675Z,18.50
2023-05-18T15:20:17.276Z,18.50
2023-05-18T15:22:45.840Z,18.60
2023-05-18T15:25:14.485Z,18.60
2023-05-18T15:27:43.302Z,18.70
2023-05-18T15:30:12.730Z,18.70
2023-05-18T15:32:43.673Z,18.80
2023-05-18T15:35:12.466Z,18.80
2023-05-18T15:37:41.346Z,18.90
2023-05-18T15:40:10.537Z,18.90
2023-05-18T15:42:39.285Z,18.90
2023-05-18T15:45:09.170Z,18.90
2023-05-18T15:47:38.183Z,18.90
2023-05-18T15:50:09.239Z,18.90
2023-05-18T15:52:37.942Z,18.80
2023-05-18T15:55:07.639Z,18.70
2023-05-18T15:57:36.274Z,18.70
2023-05-18T16:00:05.736Z,18.70
2023-05-18T16:02:40.399Z,18.70
2023-05-18T16:05:10.765Z,18.60
2023-05-18T16:07:41.074Z,18.60
2023-05-18T16:10:10.038Z,18.50
2023-05-18T16:12:38.728Z,18.50
2023-05-18T16:15:08.475Z,18.60
2023-05-18T16:17:37.270Z,18.50
2023-05-18T16:20:06.786Z,18.60
2023-05-18T16:22:36.834Z,18.50
2023-05-18T16:25:05.889Z,18.50
2023-05-18T16:27:34.484Z,18.50
2023-05-18T16:30:03.373Z,18.50
2023-05-18T16:32:32.652Z,18.50
2023-05-18T16:35:02.088Z,18.60
2023-05-18T16:37:30.721Z,18.60
2023-05-18T16:40:00.836Z,18.60
2023-05-18T16:42:29.620Z,18.60
2023-05-18T16:44:58.201Z,18.60
2023-05-18T16:47:27.565Z,18.60
2023-05-18T16:49:56.410Z,18.50
2023-05-18T16:52:24.964Z,18.40
2023-05-18T16:54:53.591Z,18.40
2023-05-18T16:57:25.376Z,18.40
2023-05-18T16:59:59.951Z,18.40
2023-05-18T17:02:28.863Z,18.50
2023-05-18T17:04:59.014Z,18.50
2023-05-18T17:07:27.953Z,18.60
2023-05-18T17:09:56.568Z,18.60
2023-05-18T17:12:26.699Z,18.70
2023-05-18T17:14:55.301Z,18.70
2023-05-18T17:17:24.203Z,18.70
2023-05-18T17:19:53.004Z,18.70
2023-05-18T17:22:21.910Z,18.80
2023-05-18T17:24:50.630Z,18.70
2023-05-18T17:27:19.377Z,18.70
2023-05-18T17:29:49.402Z,18.70
2023-05-18T17:32:18.435Z,18.80
2023-05-18T17:34:46.994Z,18.70
2023-05-18T17:37:15.624Z,18.60
2023-05-18T17:39:44.249Z,18.60
2023-05-18T17:42:12.889Z,18.50
2023-05-18T17:44:41.552Z,18.40
2023-05-18T17:47:11.859Z,18.30
2023-05-18T17:49:40.630Z,18.30
2023-05-18T17:52:09.485Z,18.30
2023-05-18T17:54:38.261Z,18.20
2023-05-18T17:57:07.100Z,18.20
2023-05-18T17:59:38.426Z,18.10
2023-05-18T18:02:07.688Z,18.00
2023-05-18T18:04:37.696Z,17.90
2023-05-18T18:07:06.939Z,17.90
2023-05-18T18:09:37.794Z,17.80
2023-05-18T18:12:06.747Z,17.80
2023-05-18T18:14:35.465Z,17.70
2023-05-18T18:17:04.332Z,17.70
2023-05-18T18:19:33.089Z,17.60
2023-05-18T18:22:03.056Z,17.60
2023-05-18T18:24:31.932Z,17.50
2023-05-18T18:27:01.124Z,17.50
2023-05-18T18:29:31.082Z,17.40
2023-05-18T18:31:59.763Z,17.30
2023-05-18T18:34:28.588Z,17.20
2023-05-18T18:36:57.443Z,17.10
2023-05-18T18:39:27.541Z,17.00
2023-05-18T18:41:56.278Z,16.90
2023-05-18T18:44:25.178Z,16.90
2023-05-18T18:46:53.870Z,16.90
2023-05-18T18:49:22.483Z,16.80
2023-05-18T18:51:52.532Z,16.70
2023-05-18T18:54:23.477Z,16.60
2023-05-18T18:56:54.087Z,16.60
2023-05-18T18:59:22.637Z,16.50
2023-05-18T19:01:51.508Z,16.40
2023-05-18T19:04:21.028Z,16.30
2023-05-18T19:06:54.104Z,16.20
2023-05-18T19:09:41.571Z,16.10
2023-05-18T19:12:11.828Z,16.00
2023-05-18T19:14:40.664Z,15.90
2023-05-18T19:17:09.312Z,15.80
2023-05-18T19:19:38.294Z,15.70
2023-05-18T19:22:07.054Z,15.60
2023-05-18T19:24:35.994Z,15.60
2023-05-18T19:27:04.867Z,15.50
2023-05-18T19:29:37.228Z,15.40
2023-05-18T19:32:08.281Z,15.30
2023-05-18T19:34:36.845Z,15.20
2023-05-18T19:37:05.560Z,15.20
2023-05-18T19:39:34.215Z,15.10
2023-05-18T19:42:02.818Z,15.00
2023-05-18T19:44:31.474Z,14.90
2023-05-18T19:47:01.984Z,14.80
2023-05-18T19:49:31.310Z,14.80
2023-05-18T19:51:59.844Z,14.70
2023-05-18T19:54:28.494Z,14.70
2023-05-18T19:56:57.065Z,14.70
2023-05-18T19:59:25.910Z,14.60
2023-05-18T20:01:56.353Z,14.50
2023-05-18T20:04:28.377Z,14.50
2023-05-18T20:06:58.362Z,14.40
2023-05-18T20:09:27.497Z,14.30
2023-05-18T20:11:56.828Z,14.30
2023-05-18T20:14:26.885Z,14.20
2023-05-18T20:16:58.643Z,14.10
2023-05-18T20:19:29.050Z,14.00
2023-05-18T20:21:57.898Z,13.90
2023-05-18T20:24:26.486Z,13.90
2023-05-18T20:26:55.246Z,13.80
2023-05-18T20:29:23.893Z,13.80
2023-05-18T20:31:53.523Z,13.70
2023-05-18T20:34:22.202Z,13.60
2023-05-18T20:36:52.311Z,13.50
2023-05-18T20:39:20.915Z,13.50
2023-05-18T20:41:50.427Z,13.50
2023-05-18T20:44:22.796Z,13.40
2023-05-18T20:46:53.129Z,13.30
2023-05-18T20:49:24.994Z,13.30
2023-05-18T20:51:55.547Z,13.20
2023-05-18T20:54:24.529Z,13.10
2023-05-18T20:56:54.108Z,13.10
2023-05-18T20:59:23.206Z,13.00
2023-05-18T21:01:52.350Z,13.00
2023-05-18T21:04:21.393Z,12.90
2023-05-18T21:06:50.209Z,12.80
2023-05-18T21:09:20.333Z,12.80
2023-05-18T21:11:49.092Z,12.80
2023-05-18T21:14:18.137Z,12.70
2023-05-18T21:16:46.987Z,12.60
2023-05-18T21:19:16.412Z,12.60
2023-05-18T21:21:45.142Z,12.50
2023-05-18T21:24:13.799Z,12.50
2023-05-18T21:26:43.896Z,12.50
2023-05-18T21:29:12.694Z,12.30
2023-05-18T21:31:41.423Z,12.30
2023-05-18T21:34:10.181Z,12.30
2023-05-18T21:36:38.820Z,12.20
2023-05-18T21:39:09.374Z,12.20
2023-05-18T21:41:40.248Z,12.20
2023-05-18T21:44:10.764Z,12.10
2023-05-18T21:46:39.464Z,12.10
2023-05-18T21:49:08.703Z,12.10
2023-05-18T21:51:37.598Z,12.00
2023-05-18T21:54:06.353Z,12.00
2023-05-18T21:56:36.729Z,11.90
2023-05-18T21:59:05.391Z,11.90
2023-05-18T22:01:35.534Z,11.80
2023-05-18T22:04:04.365Z,11.80
2023-05-18T22:06:33.073Z,11.70
2023-05-18T22:09:01.656Z,11.60
2023-05-18T22:11:30.344Z,11.60
2023-05-18T22:13:58.951Z,11.60
2023-05-18T22:16:27.663Z,11.50
2023-05-18T22:18:57.729Z,11.40
2023-05-18T22:21:26.379Z,11.40
2023-05-18T22:23:54.983Z,11.30
2023-05-18T22:26:23.606Z,11.30
2023-05-18T22:28:52.381Z,11.30
2023-05-18T22:31:21.416Z,11.20
2023-05-18T22:33:52.379Z,11.10
2023-05-18T22:36:23.763Z,11.00
2023-05-18T22:38:52.400Z,11.00
2023-05-18T22:41:21.962Z,11.00
2023-05-18T22:43:50.582Z,10.90
2023-05-18T22:46:20.292Z,10.80
2023-05-18T22:48:48.999Z,10.80
2023-05-18T22:51:18.540Z,10.80
2023-05-18T22:53:48.475Z,10.70
2023-05-18T22:56:19.009Z,10.70
2023-05-18T22:58:47.616Z,10.60
2023-05-18T23:01:16.422Z,10.60
2023-05-18T23:03:45.156Z,10.50
2023-05-18T23:06:14.042Z,10.50
2023-05-18T23:08:43.640Z,10.40
2023-05-18T23:11:13.659Z,10.40
2023-05-18T23:13:42.247Z,10.30
2023-05-18T23:16:11.390Z,10.30
2023-05-18T23:18:40.037Z,10.30
2023-05-18T23:21:09.140Z,10.20
2023-05-18T23:23:37.825Z,10.10
2023-05-18T23:26:06.625Z,10.10
2023-05-18T23:28:37.452Z,10.10
2023-05-18T23:31:06.374Z,10.00
2023-05-18T23:33:35.809Z,10.00
2023-05-18T23:36:05.942Z,9.90
2023-05-18T23:38:37.818Z,9.90
2023-05-18T23:41:08.117Z,9.90
2023-05-18T23:43:38.993Z,9.80
2023-05-18T23:46:10.437Z,9.80
2023-05-18T23:48:39.815Z,9.70
2023-05-18T23:51:12.273Z,9.70
2023-05-18T23:53:41.403Z,9.70
2023-05-18T23:56:12.307Z,9.70
2023-05-18T23:58:45.071Z,9.60
